sensor_id;sensor_type;location;lat;lon;timestamp;P1;durP1;ratioP1;P2;durP2;ratioP2
10150;SDS011;5116;52.318;4.644;2023-02-11T00:00:32;2.43;;;1.70;;
10150;SDS011;5116;52.318;4.644;2023-02-11T00:03:00;2.53;;;1.40;;
10150;SDS011;5116;52.318;4.644;2023-02-11T00:05:27;1.67;;;1.57;;
10150;SDS011;5116;52.318;4.644;2023-02-11T00:07:55;2.73;;;1.63;;
10150;SDS011;5116;52.318;4.644;2023-02-11T00:10:22;1.63;;;1.53;;
10150;SDS011;5116;52.318;4.644;2023-02-11T00:12:49;2.70;;;1.40;;
10150;SDS011;5116;52.318;4.644;2023-02-11T00:15:17;2.90;;;1.60;;
10150;SDS011;5116;52.318;4.644;2023-02-11T00:17:44;1.50;;;1.40;;
10150;SDS011;5116;52.318;4.644;2023-02-11T00:20:11;4.03;;;1.60;;
10150;SDS011;5116;52.318;4.644;2023-02-11T00:22:39;2.30;;;1.77;;
10150;SDS011;5116;52.318;4.644;2023-02-11T00:25:06;2.93;;;1.73;;
10150;SDS011;5116;52.318;4.644;2023-02-11T00:27:35;3.90;;;1.57;;
10150;SDS011;5116;52.318;4.644;2023-02-11T00:30:03;2.40;;;1.43;;
10150;SDS011;5116;52.318;4.644;2023-02-11T00:32:31;3.30;;;1.50;;
10150;SDS011;5116;52.318;4.644;2023-02-11T00:34:58;2.13;;;1.43;;
10150;SDS011;5116;52.318;4.644;2023-02-11T00:37:26;5.83;;;2.13;;
10150;SDS011;5116;52.318;4.644;2023-02-11T00:39:53;1.60;;;1.43;;
10150;SDS011;5116;52.318;4.644;2023-02-11T00:42:21;1.40;;;1.30;;
10150;SDS011;5116;52.318;4.644;2023-02-11T00:44:48;4.83;;;1.97;;
10150;SDS011;5116;52.318;4.644;2023-02-11T00:47:15;3.03;;;1.80;;
10150;SDS011;5116;52.318;4.644;2023-02-11T00:49:43;7.03;;;2.30;;
10150;SDS011;5116;52.318;4.644;2023-02-11T00:52:10;6.10;;;2.37;;
10150;SDS011;5116;52.318;4.644;2023-02-11T00:54:38;4.20;;;2.47;;
10150;SDS011;5116;52.318;4.644;2023-02-11T00:57:05;3.40;;;2.30;;
10150;SDS011;5116;52.318;4.644;2023-02-11T00:59:34;4.17;;;2.57;;
10150;SDS011;5116;52.318;4.644;2023-02-11T01:02:01;3.33;;;2.03;;
10150;SDS011;5116;52.318;4.644;2023-02-11T01:04:29;3.73;;;2.67;;
10150;SDS011;5116;52.318;4.644;2023-02-11T01:06:56;4.67;;;2.30;;
10150;SDS011;5116;52.318;4.644;2023-02-11T01:09:26;4.67;;;2.33;;
10150;SDS011;5116;52.318;4.644;2023-02-11T01:11:54;3.70;;;2.50;;
10150;SDS011;5116;52.318;4.644;2023-02-11T01:14:21;6.27;;;2.17;;
10150;SDS011;5116;52.318;4.644;2023-02-11T01:16:49;2.87;;;2.23;;
10150;SDS011;5116;52.318;4.644;2023-02-11T01:19:19;2.23;;;2.00;;
10150;SDS011;5116;52.318;4.644;2023-02-11T01:21:47;2.37;;;2.10;;
10150;SDS011;5116;52.318;4.644;2023-02-11T01:24:15;5.37;;;2.47;;
10150;SDS011;5116;52.318;4.644;2023-02-11T01:26:43;5.63;;;2.23;;
10150;SDS011;5116;52.318;4.644;2023-02-11T01:29:10;3.20;;;2.30;;
10150;SDS011;5116;52.318;4.644;2023-02-11T01:31:38;3.73;;;1.80;;
10150;SDS011;5116;52.318;4.644;2023-02-11T01:34:05;2.57;;;2.13;;
10150;SDS011;5116;52.318;4.644;2023-02-11T01:36:35;2.10;;;1.83;;
10150;SDS011;5116;52.318;4.644;2023-02-11T01:39:03;2.13;;;1.93;;
10150;SDS011;5116;52.318;4.644;2023-02-11T01:41:30;3.17;;;2.00;;
10150;SDS011;5116;52.318;4.644;2023-02-11T01:43:57;4.33;;;2.30;;
10150;SDS011;5116;52.318;4.644;2023-02-11T01:49:04;3.17;;;2.40;;
10150;SDS011;5116;52.318;4.644;2023-02-11T01:51:55;4.23;;;2.20;;
10150;SDS011;5116;52.318;4.644;2023-02-11T01:54:21;3.70;;;1.90;;
10150;SDS011;5116;52.318;4.644;2023-02-11T01:57:09;3.50;;;1.93;;
10150;SDS011;5116;52.318;4.644;2023-02-11T02:02:22;2.50;;;2.27;;
10150;SDS011;5116;52.318;4.644;2023-02-11T02:07:59;1.67;;;1.57;;
10150;SDS011;5116;52.318;4.644;2023-02-11T02:10:30;3.90;;;2.20;;
10150;SDS011;5116;52.318;4.644;2023-02-11T02:13:00;2.37;;;2.13;;
10150;SDS011;5116;52.318;4.644;2023-02-11T02:20:51;2.63;;;2.17;;
10150;SDS011;5116;52.318;4.644;2023-02-11T02:26:06;4.13;;;2.67;;
10150;SDS011;5116;52.318;4.644;2023-02-11T02:34:00;3.00;;;2.07;;
10150;SDS011;5116;52.318;4.644;2023-02-11T02:36:42;2.40;;;2.03;;
10150;SDS011;5116;52.318;4.644;2023-02-11T02:39:17;3.97;;;2.30;;
10150;SDS011;5116;52.318;4.644;2023-02-11T02:41:46;4.60;;;2.60;;
10150;SDS011;5116;52.318;4.644;2023-02-11T02:44:15;4.30;;;2.40;;
10150;SDS011;5116;52.318;4.644;2023-02-11T02:46:42;3.77;;;2.30;;
10150;SDS011;5116;52.318;4.644;2023-02-11T02:49:13;3.90;;;2.50;;
10150;SDS011;5116;52.318;4.644;2023-02-11T03:02:38;5.33;;;3.10;;
10150;SDS011;5116;52.318;4.644;2023-02-11T03:07:47;4.83;;;2.77;;
10150;SDS011;5116;52.318;4.644;2023-02-11T03:10:21;6.67;;;2.97;;
10150;SDS011;5116;52.318;4.644;2023-02-11T03:12:53;3.10;;;2.47;;
10150;SDS011;5116;52.318;4.644;2023-02-11T03:15:22;4.23;;;3.10;;
10150;SDS011;5116;52.318;4.644;2023-02-11T03:17:50;3.77;;;2.43;;
10150;SDS011;5116;52.318;4.644;2023-02-11T03:20:19;7.07;;;3.70;;
10150;SDS011;5116;52.318;4.644;2023-02-11T03:22:49;3.30;;;2.60;;
10150;SDS011;5116;52.318;4.644;2023-02-11T03:25:21;4.23;;;2.87;;
10150;SDS011;5116;52.318;4.644;2023-02-11T03:27:54;4.60;;;2.80;;
10150;SDS011;5116;52.318;4.644;2023-02-11T03:32:56;5.30;;;3.13;;
10150;SDS011;5116;52.318;4.644;2023-02-11T03:35:27;5.57;;;3.00;;
10150;SDS011;5116;52.318;4.644;2023-02-11T03:37:59;3.90;;;2.60;;
10150;SDS011;5116;52.318;4.644;2023-02-11T03:40:30;3.93;;;3.03;;
10150;SDS011;5116;52.318;4.644;2023-02-11T03:42:58;11.07;;;4.57;;
10150;SDS011;5116;52.318;4.644;2023-02-11T03:45:27;5.80;;;3.80;;
10150;SDS011;5116;52.318;4.644;2023-02-11T03:48:00;3.73;;;2.80;;
10150;SDS011;5116;52.318;4.644;2023-02-11T03:50:29;7.37;;;3.63;;
10150;SDS011;5116;52.318;4.644;2023-02-11T03:52:57;8.07;;;4.40;;
10150;SDS011;5116;52.318;4.644;2023-02-11T03:55:26;6.90;;;3.00;;
10150;SDS011;5116;52.318;4.644;2023-02-11T03:57:54;7.77;;;3.90;;
10150;SDS011;5116;52.318;4.644;2023-02-11T04:00:28;7.77;;;4.37;;
10150;SDS011;5116;52.318;4.644;2023-02-11T04:02:56;4.33;;;3.13;;
10150;SDS011;5116;52.318;4.644;2023-02-11T04:05:24;5.60;;;3.07;;
10150;SDS011;5116;52.318;4.644;2023-02-11T04:07:52;5.90;;;3.67;;
10150;SDS011;5116;52.318;4.644;2023-02-11T04:10:19;9.10;;;4.37;;
10150;SDS011;5116;52.318;4.644;2023-02-11T04:12:47;6.40;;;3.43;;
10150;SDS011;5116;52.318;4.644;2023-02-11T04:15:14;7.97;;;4.30;;
10150;SDS011;5116;52.318;4.644;2023-02-11T04:17:42;4.73;;;3.67;;
10150;SDS011;5116;52.318;4.644;2023-02-11T04:20:09;7.97;;;4.67;;
10150;SDS011;5116;52.318;4.644;2023-02-11T04:22:37;10.23;;;4.73;;
10150;SDS011;5116;52.318;4.644;2023-02-11T04:25:05;11.33;;;4.67;;
10150;SDS011;5116;52.318;4.644;2023-02-11T04:27:35;8.53;;;4.87;;
10150;SDS011;5116;52.318;4.644;2023-02-11T04:30:03;5.60;;;3.77;;
10150;SDS011;5116;52.318;4.644;2023-02-11T04:32:31;12.10;;;4.13;;
10150;SDS011;5116;52.318;4.644;2023-02-11T04:34:58;7.10;;;4.83;;
10150;SDS011;5116;52.318;4.644;2023-02-11T04:37:25;5.87;;;4.37;;
10150;SDS011;5116;52.318;4.644;2023-02-11T04:39:53;6.37;;;3.90;;
10150;SDS011;5116;52.318;4.644;2023-02-11T04:42:20;7.83;;;4.60;;
10150;SDS011;5116;52.318;4.644;2023-02-11T04:44:47;5.63;;;3.50;;
10150;SDS011;5116;52.318;4.644;2023-02-11T04:47:15;5.87;;;3.70;;
10150;SDS011;5116;52.318;4.644;2023-02-11T04:49:45;6.83;;;3.30;;
10150;SDS011;5116;52.318;4.644;2023-02-11T04:52:12;11.30;;;5.03;;
10150;SDS011;5116;52.318;4.644;2023-02-11T04:54:40;7.27;;;4.40;;
10150;SDS011;5116;52.318;4.644;2023-02-11T04:57:07;6.20;;;4.10;;
10150;SDS011;5116;52.318;4.644;2023-02-11T04:59:34;6.67;;;4.00;;
10150;SDS011;5116;52.318;4.644;2023-02-11T05:02:02;6.30;;;4.27;;
10150;SDS011;5116;52.318;4.644;2023-02-11T05:04:29;7.40;;;4.10;;
10150;SDS011;5116;52.318;4.644;2023-02-11T05:06:57;7.30;;;4.00;;
10150;SDS011;5116;52.318;4.644;2023-02-11T05:09:24;7.93;;;4.57;;
10150;SDS011;5116;52.318;4.644;2023-02-11T05:11:51;6.13;;;4.03;;
10150;SDS011;5116;52.318;4.644;2023-02-11T05:14:19;5.57;;;4.30;;
10150;SDS011;5116;52.318;4.644;2023-02-11T05:16:49;7.00;;;5.13;;
10150;SDS011;5116;52.318;4.644;2023-02-11T05:19:16;6.43;;;4.53;;
10150;SDS011;5116;52.318;4.644;2023-02-11T05:21:43;8.50;;;4.43;;
10150;SDS011;5116;52.318;4.644;2023-02-11T05:24:28;5.87;;;4.20;;
10150;SDS011;5116;52.318;4.644;2023-02-11T05:26:55;8.90;;;4.67;;
10150;SDS011;5116;52.318;4.644;2023-02-11T05:29:23;8.67;;;5.07;;
10150;SDS011;5116;52.318;4.644;2023-02-11T05:31:50;7.83;;;4.17;;
10150;SDS011;5116;52.318;4.644;2023-02-11T05:34:18;8.53;;;4.67;;
10150;SDS011;5116;52.318;4.644;2023-02-11T05:36:45;10.07;;;4.83;;
10150;SDS011;5116;52.318;4.644;2023-02-11T05:39:12;7.27;;;4.50;;
10150;SDS011;5116;52.318;4.644;2023-02-11T05:41:40;7.73;;;4.63;;
10150;SDS011;5116;52.318;4.644;2023-02-11T05:44:07;9.40;;;5.53;;
10150;SDS011;5116;52.318;4.644;2023-02-11T05:46:35;9.93;;;4.70;;
10150;SDS011;5116;52.318;4.644;2023-02-11T05:49:03;7.23;;;3.90;;
10150;SDS011;5116;52.318;4.644;2023-02-11T05:51:30;8.93;;;5.47;;
10150;SDS011;5116;52.318;4.644;2023-02-11T05:53:57;6.93;;;4.40;;
10150;SDS011;5116;52.318;4.644;2023-02-11T05:56:24;7.73;;;5.27;;
10150;SDS011;5116;52.318;4.644;2023-02-11T05:58:52;7.03;;;4.17;;
10150;SDS011;5116;52.318;4.644;2023-02-11T06:01:19;6.53;;;4.50;;
10150;SDS011;5116;52.318;4.644;2023-02-11T06:03:46;9.60;;;5.37;;
10150;SDS011;5116;52.318;4.644;2023-02-11T06:06:15;9.83;;;5.20;;
10150;SDS011;5116;52.318;4.644;2023-02-11T06:08:43;8.40;;;4.17;;
10150;SDS011;5116;52.318;4.644;2023-02-11T06:11:12;6.87;;;4.10;;
10150;SDS011;5116;52.318;4.644;2023-02-11T06:13:40;7.07;;;4.57;;
10150;SDS011;5116;52.318;4.644;2023-02-11T06:16:08;9.10;;;4.73;;
10150;SDS011;5116;52.318;4.644;2023-02-11T06:18:35;5.70;;;4.23;;
10150;SDS011;5116;52.318;4.644;2023-02-11T06:21:07;7.33;;;4.57;;
10150;SDS011;5116;52.318;4.644;2023-02-11T06:23:34;8.47;;;4.73;;
10150;SDS011;5116;52.318;4.644;2023-02-11T06:26:06;9.00;;;4.57;;
10150;SDS011;5116;52.318;4.644;2023-02-11T06:28:33;5.30;;;3.97;;
10150;SDS011;5116;52.318;4.644;2023-02-11T06:31:04;9.47;;;5.50;;
10150;SDS011;5116;52.318;4.644;2023-02-11T06:33:32;8.57;;;4.37;;
10150;SDS011;5116;52.318;4.644;2023-02-11T06:36:00;7.20;;;4.13;;
10150;SDS011;5116;52.318;4.644;2023-02-11T06:38:28;8.87;;;5.13;;
10150;SDS011;5116;52.318;4.644;2023-02-11T06:40:55;8.17;;;4.73;;
10150;SDS011;5116;52.318;4.644;2023-02-11T06:43:22;5.10;;;4.30;;
10150;SDS011;5116;52.318;4.644;2023-02-11T06:45:53;7.03;;;4.90;;
10150;SDS011;5116;52.318;4.644;2023-02-11T06:48:21;8.13;;;4.43;;
10150;SDS011;5116;52.318;4.644;2023-02-11T06:50:49;7.00;;;4.90;;
10150;SDS011;5116;52.318;4.644;2023-02-11T06:53:16;9.87;;;5.57;;
10150;SDS011;5116;52.318;4.644;2023-02-11T06:55:44;6.57;;;5.10;;
10150;SDS011;5116;52.318;4.644;2023-02-11T06:58:11;10.43;;;5.40;;
10150;SDS011;5116;52.318;4.644;2023-02-11T07:00:39;6.63;;;4.57;;
10150;SDS011;5116;52.318;4.644;2023-02-11T07:03:06;7.90;;;5.07;;
10150;SDS011;5116;52.318;4.644;2023-02-11T07:05:34;7.87;;;4.70;;
10150;SDS011;5116;52.318;4.644;2023-02-11T07:08:03;6.03;;;4.43;;
10150;SDS011;5116;52.318;4.644;2023-02-11T07:10:32;12.67;;;5.90;;
10150;SDS011;5116;52.318;4.644;2023-02-11T07:13:02;8.13;;;4.93;;
10150;SDS011;5116;52.318;4.644;2023-02-11T07:15:30;10.00;;;5.83;;
10150;SDS011;5116;52.318;4.644;2023-02-11T07:17:57;7.57;;;4.77;;
10150;SDS011;5116;52.318;4.644;2023-02-11T07:20:25;8.43;;;4.63;;
10150;SDS011;5116;52.318;4.644;2023-02-11T07:22:53;9.03;;;4.63;;
10150;SDS011;5116;52.318;4.644;2023-02-11T07:25:21;6.10;;;4.13;;
10150;SDS011;5116;52.318;4.644;2023-02-11T07:27:48;8.87;;;5.00;;
10150;SDS011;5116;52.318;4.644;2023-02-11T07:30:16;9.07;;;4.90;;
10150;SDS011;5116;52.318;4.644;2023-02-11T07:32:43;8.60;;;5.40;;
10150;SDS011;5116;52.318;4.644;2023-02-11T07:35:11;8.43;;;4.93;;
10150;SDS011;5116;52.318;4.644;2023-02-11T07:37:40;6.43;;;4.53;;
10150;SDS011;5116;52.318;4.644;2023-02-11T07:40:07;7.37;;;4.87;;
10150;SDS011;5116;52.318;4.644;2023-02-11T07:42:35;9.70;;;4.87;;
10150;SDS011;5116;52.318;4.644;2023-02-11T07:45:02;9.43;;;5.00;;
10150;SDS011;5116;52.318;4.644;2023-02-11T07:47:30;7.10;;;4.67;;
10150;SDS011;5116;52.318;4.644;2023-02-11T07:49:57;6.43;;;4.47;;
10150;SDS011;5116;52.318;4.644;2023-02-11T07:52:27;8.13;;;4.27;;
10150;SDS011;5116;52.318;4.644;2023-02-11T07:54:55;6.80;;;4.33;;
10150;SDS011;5116;52.318;4.644;2023-02-11T07:57:22;8.67;;;4.80;;
10150;SDS011;5116;52.318;4.644;2023-02-11T07:59:50;6.47;;;4.40;;
10150;SDS011;5116;52.318;4.644;2023-02-11T08:02:17;8.00;;;4.90;;
10150;SDS011;5116;52.318;4.644;2023-02-11T08:04:45;7.07;;;4.70;;
10150;SDS011;5116;52.318;4.644;2023-02-11T08:07:14;6.03;;;4.10;;
10150;SDS011;5116;52.318;4.644;2023-02-11T08:09:41;4.97;;;3.77;;
10150;SDS011;5116;52.318;4.644;2023-02-11T08:12:11;6.03;;;4.47;;
10150;SDS011;5116;52.318;4.644;2023-02-11T08:14:41;6.97;;;4.47;;
10150;SDS011;5116;52.318;4.644;2023-02-11T08:17:08;5.63;;;4.03;;
10150;SDS011;5116;52.318;4.644;2023-02-11T08:19:45;5.63;;;3.77;;
10150;SDS011;5116;52.318;4.644;2023-02-11T08:22:12;9.00;;;4.67;;
10150;SDS011;5116;52.318;4.644;2023-02-11T08:24:40;5.97;;;4.07;;
10150;SDS011;5116;52.318;4.644;2023-02-11T08:27:07;6.30;;;4.43;;
10150;SDS011;5116;52.318;4.644;2023-02-11T08:29:35;6.10;;;4.50;;
10150;SDS011;5116;52.318;4.644;2023-02-11T08:32:02;5.50;;;4.60;;
10150;SDS011;5116;52.318;4.644;2023-02-11T08:34:30;6.37;;;4.43;;
10150;SDS011;5116;52.318;4.644;2023-02-11T08:36:57;6.60;;;4.13;;
10150;SDS011;5116;52.318;4.644;2023-02-11T08:39:25;6.83;;;4.83;;
10150;SDS011;5116;52.318;4.644;2023-02-11T08:41:53;6.45;;;3.83;;
10150;SDS011;5116;52.318;4.644;2023-02-11T08:44:22;5.70;;;4.23;;
10150;SDS011;5116;52.318;4.644;2023-02-11T08:46:50;5.97;;;4.23;;
10150;SDS011;5116;52.318;4.644;2023-02-11T08:49:19;7.23;;;5.00;;
10150;SDS011;5116;52.318;4.644;2023-02-11T08:51:47;4.73;;;3.70;;
10150;SDS011;5116;52.318;4.644;2023-02-11T08:54:15;8.00;;;4.47;;
10150;SDS011;5116;52.318;4.644;2023-02-11T08:56:49;4.67;;;3.70;;
10150;SDS011;5116;52.318;4.644;2023-02-11T08:59:17;6.70;;;5.00;;
10150;SDS011;5116;52.318;4.644;2023-02-11T09:01:54;5.73;;;4.20;;
10150;SDS011;5116;52.318;4.644;2023-02-11T09:04:22;5.67;;;3.57;;
10150;SDS011;5116;52.318;4.644;2023-02-11T09:06:49;6.07;;;4.43;;
10150;SDS011;5116;52.318;4.644;2023-02-11T09:09:17;5.70;;;3.87;;
10150;SDS011;5116;52.318;4.644;2023-02-11T09:11:44;6.00;;;4.17;;
10150;SDS011;5116;52.318;4.644;2023-02-11T09:14:19;6.93;;;4.27;;
10150;SDS011;5116;52.318;4.644;2023-02-11T09:16:50;5.13;;;3.70;;
10150;SDS011;5116;52.318;4.644;2023-02-11T09:19:21;6.70;;;4.27;;
10150;SDS011;5116;52.318;4.644;2023-02-11T09:21:52;8.30;;;4.33;;
10150;SDS011;5116;52.318;4.644;2023-02-11T09:24:20;5.17;;;3.87;;
10150;SDS011;5116;52.318;4.644;2023-02-11T09:26:53;5.07;;;3.63;;
10150;SDS011;5116;52.318;4.644;2023-02-11T09:29:23;4.67;;;3.43;;
10150;SDS011;5116;52.318;4.644;2023-02-11T09:31:50;4.37;;;3.50;;
10150;SDS011;5116;52.318;4.644;2023-02-11T09:34:18;6.93;;;4.07;;
10150;SDS011;5116;52.318;4.644;2023-02-11T09:36:47;8.17;;;3.93;;
10150;SDS011;5116;52.318;4.644;2023-02-11T09:39:17;5.17;;;3.80;;
10150;SDS011;5116;52.318;4.644;2023-02-11T09:44:27;7.80;;;3.73;;
10150;SDS011;5116;52.318;4.644;2023-02-11T09:46:59;3.80;;;3.47;;
10150;SDS011;5116;52.318;4.644;2023-02-11T09:49:34;5.47;;;4.10;;
10150;SDS011;5116;52.318;4.644;2023-02-11T09:54:53;5.53;;;3.70;;
10150;SDS011;5116;52.318;4.644;2023-02-11T09:57:21;5.67;;;3.90;;
10150;SDS011;5116;52.318;4.644;2023-02-11T09:59:55;7.93;;;5.13;;
10150;SDS011;5116;52.318;4.644;2023-02-11T10:02:25;7.00;;;3.80;;
10150;SDS011;5116;52.318;4.644;2023-02-11T10:10:57;4.30;;;3.37;;
10150;SDS011;5116;52.318;4.644;2023-02-11T10:13:21;6.57;;;3.43;;
10150;SDS011;5116;52.318;4.644;2023-02-11T10:16:03;4.80;;;3.30;;
10150;SDS011;5116;52.318;4.644;2023-02-11T10:18:38;4.87;;;3.93;;
10150;SDS011;5116;52.318;4.644;2023-02-11T10:23:59;6.30;;;4.17;;
10150;SDS011;5116;52.318;4.644;2023-02-11T10:26:28;4.97;;;3.77;;
10150;SDS011;5116;52.318;4.644;2023-02-11T10:28:58;5.07;;;3.73;;
10150;SDS011;5116;52.318;4.644;2023-02-11T10:31:27;3.73;;;3.17;;
10150;SDS011;5116;52.318;4.644;2023-02-11T10:36:32;5.67;;;3.60;;
10150;SDS011;5116;52.318;4.644;2023-02-11T10:41:44;6.20;;;3.40;;
10150;SDS011;5116;52.318;4.644;2023-02-11T10:44:37;5.00;;;3.47;;
10150;SDS011;5116;52.318;4.644;2023-02-11T10:47:21;6.57;;;3.80;;
10150;SDS011;5116;52.318;4.644;2023-02-11T10:49:55;4.97;;;3.53;;
10150;SDS011;5116;52.318;4.644;2023-02-11T10:52:29;5.87;;;3.77;;
10150;SDS011;5116;52.318;4.644;2023-02-11T10:55:16;5.97;;;4.37;;
10150;SDS011;5116;52.318;4.644;2023-02-11T10:57:51;3.23;;;2.90;;
10150;SDS011;5116;52.318;4.644;2023-02-11T11:00:22;5.40;;;3.53;;
10150;SDS011;5116;52.318;4.644;2023-02-11T11:02:57;4.57;;;3.57;;
10150;SDS011;5116;52.318;4.644;2023-02-11T11:05:31;5.50;;;3.70;;
10150;SDS011;5116;52.318;4.644;2023-02-11T11:08:04;5.33;;;3.73;;
10150;SDS011;5116;52.318;4.644;2023-02-11T11:10:40;4.40;;;3.30;;
10150;SDS011;5116;52.318;4.644;2023-02-11T11:13:34;6.97;;;4.00;;
10150;SDS011;5116;52.318;4.644;2023-02-11T11:16:06;5.60;;;3.73;;
10150;SDS011;5116;52.318;4.644;2023-02-11T11:18:43;4.97;;;3.60;;
10150;SDS011;5116;52.318;4.644;2023-02-11T11:23:38;4.67;;;3.83;;
10150;SDS011;5116;52.318;4.644;2023-02-11T11:26:10;5.00;;;3.73;;
10150;SDS011;5116;52.318;4.644;2023-02-11T11:28:55;4.90;;;3.80;;
10150;SDS011;5116;52.318;4.644;2023-02-11T11:31:34;5.03;;;3.90;;
10150;SDS011;5116;52.318;4.644;2023-02-11T11:40:28;5.07;;;3.17;;
10150;SDS011;5116;52.318;4.644;2023-02-11T11:43:04;4.90;;;3.50;;
10150;SDS011;5116;52.318;4.644;2023-02-11T11:45:32;4.57;;;3.47;;
10150;SDS011;5116;52.318;4.644;2023-02-11T11:51:07;6.57;;;4.10;;
10150;SDS011;5116;52.318;4.644;2023-02-11T11:53:28;8.13;;;4.23;;
10150;SDS011;5116;52.318;4.644;2023-02-11T11:56:01;4.83;;;3.30;;
10150;SDS011;5116;52.318;4.644;2023-02-11T11:58:30;6.10;;;3.57;;
10150;SDS011;5116;52.318;4.644;2023-02-11T12:01:01;5.30;;;3.53;;
10150;SDS011;5116;52.318;4.644;2023-02-11T12:06:09;5.43;;;3.73;;
10150;SDS011;5116;52.318;4.644;2023-02-11T12:08:51;5.30;;;3.83;;
10150;SDS011;5116;52.318;4.644;2023-02-11T12:16:56;3.73;;;3.27;;
10150;SDS011;5116;52.318;4.644;2023-02-11T12:29:54;4.57;;;3.30;;
10150;SDS011;5116;52.318;4.644;2023-02-11T12:33:07;6.40;;;3.50;;
10150;SDS011;5116;52.318;4.644;2023-02-11T12:40:19;4.63;;;3.73;;
10150;SDS011;5116;52.318;4.644;2023-02-11T12:50:53;4.30;;;3.10;;
10150;SDS011;5116;52.318;4.644;2023-02-11T12:55:51;4.73;;;3.93;;
10150;SDS011;5116;52.318;4.644;2023-02-11T12:58:26;4.17;;;2.67;;
10150;SDS011;5116;52.318;4.644;2023-02-11T13:01:25;3.93;;;3.13;;
10150;SDS011;5116;52.318;4.644;2023-02-11T13:03:55;3.97;;;3.23;;
10150;SDS011;5116;52.318;4.644;2023-02-11T13:06:31;7.67;;;3.80;;
10150;SDS011;5116;52.318;4.644;2023-02-11T13:09:02;5.57;;;3.70;;
10150;SDS011;5116;52.318;4.644;2023-02-11T13:11:44;4.20;;;3.40;;
10150;SDS011;5116;52.318;4.644;2023-02-11T13:14:28;3.30;;;3.00;;
10150;SDS011;5116;52.318;4.644;2023-02-11T13:16:58;4.23;;;2.73;;
10150;SDS011;5116;52.318;4.644;2023-02-11T13:19:47;5.33;;;3.30;;
10150;SDS011;5116;52.318;4.644;2023-02-11T13:22:23;3.70;;;2.73;;
10150;SDS011;5116;52.318;4.644;2023-02-11T13:25:06;3.93;;;3.33;;
10150;SDS011;5116;52.318;4.644;2023-02-11T13:27:52;5.07;;;2.80;;
10150;SDS011;5116;52.318;4.644;2023-02-11T13:30:25;4.50;;;3.33;;
10150;SDS011;5116;52.318;4.644;2023-02-11T13:35:26;4.27;;;2.90;;
10150;SDS011;5116;52.318;4.644;2023-02-11T13:37:55;3.57;;;3.07;;
10150;SDS011;5116;52.318;4.644;2023-02-11T13:40:25;3.77;;;2.87;;
10150;SDS011;5116;52.318;4.644;2023-02-11T13:42:57;4.10;;;3.43;;
10150;SDS011;5116;52.318;4.644;2023-02-11T13:48:00;4.33;;;2.67;;
10150;SDS011;5116;52.318;4.644;2023-02-11T13:50:37;4.93;;;3.03;;
10150;SDS011;5116;52.318;4.644;2023-02-11T13:53:05;3.37;;;3.03;;
10150;SDS011;5116;52.318;4.644;2023-02-11T13:55:35;3.73;;;3.10;;
10150;SDS011;5116;52.318;4.644;2023-02-11T14:04:04;3.80;;;2.97;;
10150;SDS011;5116;52.318;4.644;2023-02-11T14:06:20;3.27;;;2.47;;
10150;SDS011;5116;52.318;4.644;2023-02-11T14:19:32;4.70;;;3.13;;
10150;SDS011;5116;52.318;4.644;2023-02-11T14:22:12;6.77;;;3.07;;
10150;SDS011;5116;52.318;4.644;2023-02-11T14:24:52;2.90;;;2.60;;
10150;SDS011;5116;52.318;4.644;2023-02-11T14:27:23;3.50;;;3.00;;
10150;SDS011;5116;52.318;4.644;2023-02-11T14:29:57;3.37;;;2.53;;
10150;SDS011;5116;52.318;4.644;2023-02-11T14:35:31;4.53;;;3.10;;
10150;SDS011;5116;52.318;4.644;2023-02-11T14:43:24;3.90;;;2.60;;
10150;SDS011;5116;52.318;4.644;2023-02-11T14:45:57;5.27;;;3.63;;
10150;SDS011;5116;52.318;4.644;2023-02-11T14:48:27;4.33;;;3.40;;
10150;SDS011;5116;52.318;4.644;2023-02-11T14:53:29;5.80;;;2.70;;
10150;SDS011;5116;52.318;4.644;2023-02-11T14:55:58;3.30;;;2.67;;
10150;SDS011;5116;52.318;4.644;2023-02-11T15:00:59;3.27;;;2.80;;
10150;SDS011;5116;52.318;4.644;2023-02-11T15:03:34;3.67;;;3.03;;
10150;SDS011;5116;52.318;4.644;2023-02-11T15:06:06;4.23;;;2.93;;
10150;SDS011;5116;52.318;4.644;2023-02-11T15:08:36;3.93;;;2.90;;
10150;SDS011;5116;52.318;4.644;2023-02-11T15:11:07;3.70;;;2.90;;
10150;SDS011;5116;52.318;4.644;2023-02-11T15:13:37;4.93;;;2.53;;
10150;SDS011;5116;52.318;4.644;2023-02-11T15:16:09;6.27;;;3.00;;
10150;SDS011;5116;52.318;4.644;2023-02-11T15:18:44;3.30;;;2.60;;
10150;SDS011;5116;52.318;4.644;2023-02-11T15:21:18;3.73;;;2.90;;
10150;SDS011;5116;52.318;4.644;2023-02-11T15:23:57;3.10;;;2.70;;
10150;SDS011;5116;52.318;4.644;2023-02-11T15:26:24;3.93;;;2.77;;
10150;SDS011;5116;52.318;4.644;2023-02-11T15:28:52;4.00;;;3.17;;
10150;SDS011;5116;52.318;4.644;2023-02-11T15:31:23;5.17;;;3.03;;
10150;SDS011;5116;52.318;4.644;2023-02-11T15:33:53;3.33;;;2.60;;
10150;SDS011;5116;52.318;4.644;2023-02-11T15:36:23;5.53;;;3.03;;
10150;SDS011;5116;52.318;4.644;2023-02-11T15:41:40;4.00;;;2.50;;
10150;SDS011;5116;52.318;4.644;2023-02-11T15:44:26;4.10;;;3.37;;
10150;SDS011;5116;52.318;4.644;2023-02-11T15:46:54;8.80;;;3.97;;
10150;SDS011;5116;52.318;4.644;2023-02-11T15:49:22;5.50;;;2.50;;
10150;SDS011;5116;52.318;4.644;2023-02-11T15:52:02;3.90;;;3.27;;
10150;SDS011;5116;52.318;4.644;2023-02-11T15:54:30;3.13;;;2.63;;
10150;SDS011;5116;52.318;4.644;2023-02-11T15:56:58;7.87;;;3.03;;
10150;SDS011;5116;52.318;4.644;2023-02-11T15:59:28;2.83;;;2.53;;
10150;SDS011;5116;52.318;4.644;2023-02-11T16:02:17;5.00;;;3.00;;
10150;SDS011;5116;52.318;4.644;2023-02-11T16:04:54;3.57;;;3.27;;
10150;SDS011;5116;52.318;4.644;2023-02-11T16:10:28;2.83;;;2.57;;
10150;SDS011;5116;52.318;4.644;2023-02-11T16:15:42;3.53;;;2.60;;
10150;SDS011;5116;52.318;4.644;2023-02-11T16:18:23;3.17;;;2.87;;
10150;SDS011;5116;52.318;4.644;2023-02-11T16:21:02;3.27;;;2.83;;
10150;SDS011;5116;52.318;4.644;2023-02-11T16:23:35;3.63;;;2.87;;
10150;SDS011;5116;52.318;4.644;2023-02-11T16:26:06;5.77;;;3.17;;
10150;SDS011;5116;52.318;4.644;2023-02-11T16:28:41;3.57;;;3.13;;
10150;SDS011;5116;52.318;4.644;2023-02-11T16:31:11;4.70;;;2.60;;
10150;SDS011;5116;52.318;4.644;2023-02-11T16:33:39;4.67;;;3.00;;
10150;SDS011;5116;52.318;4.644;2023-02-11T16:36:13;5.10;;;2.93;;
10150;SDS011;5116;52.318;4.644;2023-02-11T16:38:43;4.83;;;2.87;;
10150;SDS011;5116;52.318;4.644;2023-02-11T16:41:34;2.77;;;2.20;;
10150;SDS011;5116;52.318;4.644;2023-02-11T16:44:02;4.07;;;2.97;;
10150;SDS011;5116;52.318;4.644;2023-02-11T16:46:35;3.37;;;2.60;;
10150;SDS011;5116;52.318;4.644;2023-02-11T16:49:25;3.90;;;2.90;;
10150;SDS011;5116;52.318;4.644;2023-02-11T16:52:00;2.87;;;2.37;;
10150;SDS011;5116;52.318;4.644;2023-02-11T16:54:28;4.10;;;2.87;;
10150;SDS011;5116;52.318;4.644;2023-02-11T16:56:58;4.13;;;2.93;;
10150;SDS011;5116;52.318;4.644;2023-02-11T16:59:31;2.80;;;2.50;;
10150;SDS011;5116;52.318;4.644;2023-02-11T17:01:58;3.60;;;2.80;;
10150;SDS011;5116;52.318;4.644;2023-02-11T17:04:27;2.50;;;2.30;;
10150;SDS011;5116;52.318;4.644;2023-02-11T17:06:55;2.63;;;2.33;;
10150;SDS011;5116;52.318;4.644;2023-02-11T17:09:25;2.77;;;2.13;;
10150;SDS011;5116;52.318;4.644;2023-02-11T17:11:58;3.50;;;2.30;;
10150;SDS011;5116;52.318;4.644;2023-02-11T17:14:26;3.97;;;2.83;;
10150;SDS011;5116;52.318;4.644;2023-02-11T17:16:55;3.07;;;2.73;;
10150;SDS011;5116;52.318;4.644;2023-02-11T17:19:23;5.60;;;3.10;;
10150;SDS011;5116;52.318;4.644;2023-02-11T17:21:53;3.70;;;3.10;;
10150;SDS011;5116;52.318;4.644;2023-02-11T17:24:21;3.10;;;2.40;;
10150;SDS011;5116;52.318;4.644;2023-02-11T17:26:52;4.17;;;2.50;;
10150;SDS011;5116;52.318;4.644;2023-02-11T17:29:25;2.83;;;2.50;;
10150;SDS011;5116;52.318;4.644;2023-02-11T17:31:53;3.13;;;2.40;;
10150;SDS011;5116;52.318;4.644;2023-02-11T17:34:21;3.00;;;2.50;;
10150;SDS011;5116;52.318;4.644;2023-02-11T17:36:49;3.70;;;3.00;;
10150;SDS011;5116;52.318;4.644;2023-02-11T17:39:17;3.23;;;2.50;;
10150;SDS011;5116;52.318;4.644;2023-02-11T17:41:46;4.67;;;3.00;;
10150;SDS011;5116;52.318;4.644;2023-02-11T17:44:14;3.03;;;2.60;;
10150;SDS011;5116;52.318;4.644;2023-02-11T17:46:42;3.00;;;2.50;;